createdAt,value
2022-09-07T15:59:58.743Z,53.55
2022-09-07T16:01:58.698Z,52.41
2022-09-07T16:02:58.715Z,51.35
2022-09-07T16:03:58.686Z,50.44
2022-09-07T16:04:58.663Z,49.5
2022-09-07T16:05:58.662Z,48.49
2022-09-07T16:06:58.642Z,48.49
2022-09-07T16:07:58.642Z,48.39
2022-09-07T16:08:58.643Z,48.39
2022-09-07T16:09:58.609Z,48.49
2022-09-07T16:10:58.607Z,49.21
2022-09-07T16:11:58.596Z,49.23
2022-09-07T16:12:58.579Z,49.33
2022-09-07T16:13:58.574Z,49.55
2022-09-07T16:14:58.571Z,49.75
2022-09-07T16:15:58.547Z,49.43
2022-09-07T16:16:58.554Z,49.75
2022-09-07T16:17:58.527Z,50.29
2022-09-07T16:18:58.527Z,50.71
2022-09-07T16:19:58.504Z,51.42
2022-09-07T16:20:58.493Z,51.4
2022-09-07T16:21:58.486Z,51.4
2022-09-07T16:22:58.483Z,51.5
2022-09-07T16:23:58.473Z,50.98
2022-09-07T16:24:58.462Z,50.66
2022-09-07T16:25:58.441Z,50.26
2022-09-07T16:26:58.443Z,50.59
2022-09-07T16:27:58.426Z,50.49
2022-09-07T16:28:58.460Z,50.68
2022-09-07T16:29:58.412Z,50.59
2022-09-07T16:30:58.393Z,50.71
2022-09-07T16:32:58.372Z,50.9
2022-09-07T16:33:58.394Z,51.03
2022-09-07T16:34:58.379Z,51.13
2022-09-07T16:35:58.352Z,51.52
2022-09-07T16:36:58.339Z,51.52
2022-09-07T16:38:58.311Z,51.52
2022-09-07T16:39:58.312Z,51.42
2022-09-07T16:40:58.303Z,51.4
2022-09-07T16:41:58.275Z,51.4
2022-09-07T16:42:58.266Z,51.4
2022-09-07T16:43:58.256Z,51.4
2022-09-07T16:44:58.243Z,51.82
2022-09-07T16:45:58.244Z,52.14
2022-09-07T16:46:58.220Z,52.53
2022-09-07T16:47:58.238Z,52.86
2022-09-07T16:48:58.213Z,53.05
2022-09-07T16:49:58.194Z,53.05
2022-09-07T16:50:58.183Z,53.15
2022-09-07T16:51:58.182Z,53.12
2022-09-07T16:52:58.163Z,53.12
2022-09-07T16:53:58.161Z,53.03
2022-09-07T16:54:58.136Z,52.93
2022-09-07T16:55:58.145Z,52.93
2022-09-07T16:56:58.123Z,53.25
2022-09-07T16:58:58.100Z,53.97
2022-09-07T16:59:58.089Z,53.97
2022-09-07T17:00:58.080Z,54.06
2022-09-07T17:01:58.073Z,53.97
2022-09-07T17:02:58.056Z,54.06
2022-09-07T17:03:58.051Z,54.17
2022-09-07T17:04:58.045Z,54.19
2022-09-07T17:05:58.025Z,54.29
2022-09-07T17:06:58.078Z,54.39
2022-09-07T17:07:58.003Z,54.27
2022-09-07T17:08:57.996Z,54.06
2022-09-07T17:09:57.993Z,54.27
2022-09-07T17:10:57.972Z,54.19
2022-09-07T17:11:57.967Z,54.29
2022-09-07T17:12:57.947Z,54.29
2022-09-07T17:13:57.940Z,54.17
2022-09-07T17:14:57.949Z,54.27
2022-09-07T17:15:57.921Z,54.17
2022-09-07T17:16:57.929Z,54.27
2022-09-07T17:17:57.907Z,54.36
2022-09-07T17:19:57.875Z,54.27
2022-09-07T17:20:57.873Z,54.06
2022-09-07T17:21:57.865Z,54.17
2022-09-07T17:22:57.856Z,54.17
2022-09-07T17:23:57.839Z,54.17
2022-09-07T17:24:57.825Z,53.85
2022-09-07T17:25:57.813Z,53.64
2022-09-07T17:26:57.811Z,53.94
2022-09-07T17:27:57.795Z,53.55
2022-09-07T17:28:57.806Z,53.22
2022-09-07T17:29:57.777Z,53.12
2022-09-07T17:30:57.760Z,53.03
2022-09-07T17:31:57.755Z,53.22
2022-09-07T17:32:57.748Z,53.12
2022-09-07T17:33:57.739Z,53.12
2022-09-07T17:34:57.733Z,52.83
2022-09-07T17:35:57.714Z,53.22
2022-09-07T17:36:57.702Z,53.33
2022-09-07T17:37:58.347Z,53.12
2022-09-07T17:38:57.679Z,53.45
2022-09-07T17:39:57.701Z,53.64
2022-09-07T17:40:57.733Z,53.87
2022-09-07T17:41:57.675Z,54.17
2022-09-07T17:43:57.651Z,54.69
2022-09-07T17:44:57.646Z,54.88
2022-09-07T17:45:57.626Z,55.11
2022-09-07T17:46:57.592Z,55.08
2022-09-07T17:47:57.657Z,54.88
2022-09-07T17:48:57.575Z,54.88
2022-09-07T17:49:57.583Z,54.98
2022-09-07T17:50:57.568Z,54.66
2022-09-07T17:51:57.544Z,54.56
2022-09-07T17:52:57.532Z,54.66
2022-09-07T17:53:57.518Z,54.44
2022-09-07T17:54:57.512Z,54.04
2022-09-07T17:55:57.511Z,53.72
2022-09-07T17:56:57.487Z,53.62
2022-09-07T17:57:57.481Z,53.52
2022-09-07T17:58:57.471Z,53.62
2022-09-07T17:59:57.461Z,53.52
2022-09-07T18:00:57.450Z,53.3
2022-09-07T18:01:57.446Z,53.1
2022-09-07T18:02:57.428Z,53.1
2022-09-07T18:03:57.425Z,53.1
2022-09-07T18:04:57.404Z,53.42
2022-09-07T18:05:57.397Z,53.62
2022-09-07T18:06:57.396Z,54.04
2022-09-07T18:07:57.392Z,54.44
2022-09-07T18:08:57.369Z,54.34
2022-09-07T18:09:57.355Z,54.14
2022-09-07T18:11:57.333Z,54.04
2022-09-07T18:12:57.324Z,54.24
2022-09-07T18:13:57.324Z,54.24
2022-09-07T18:14:57.302Z,54.14
2022-09-07T18:15:57.303Z,54.24
2022-09-07T18:16:57.285Z,54.24
2022-09-07T18:17:57.268Z,54.53
2022-09-07T18:18:57.260Z,54.76
2022-09-07T18:19:57.253Z,54.66
2022-09-07T18:20:57.239Z,54.56
2022-09-07T18:21:57.231Z,54.56
2022-09-07T18:22:57.216Z,54.76
2022-09-07T18:23:57.205Z,54.96
2022-09-07T18:24:57.255Z,55.05
2022-09-07T18:25:57.196Z,55.15
2022-09-07T18:26:57.177Z,55.05
2022-09-07T18:28:57.151Z,55.05
2022-09-07T18:29:57.148Z,55.26
2022-09-07T18:30:57.154Z,55.15
2022-09-07T18:31:57.131Z,55.38
2022-09-07T18:32:57.169Z,55.77
2022-09-07T18:33:57.099Z,56
2022-09-07T18:34:57.136Z,56.2
2022-09-07T18:35:57.082Z,56.1
2022-09-07T18:36:57.072Z,56.3
2022-09-07T18:37:57.065Z,56.52
2022-09-07T18:38:57.051Z,56.72
2022-09-07T18:39:57.036Z,57.14
2022-09-07T18:40:57.029Z,57.64
2022-09-07T18:41:57.021Z,57.74
2022-09-07T18:42:57.007Z,57.44
2022-09-07T18:43:56.999Z,57.34
2022-09-07T18:44:57.002Z,57.12
2022-09-07T18:45:56.980Z,57.21
2022-09-07T18:46:56.973Z,57.24
2022-09-07T18:47:56.957Z,57.34
2022-09-07T18:48:56.948Z,57.24
2022-09-07T18:49:56.954Z,57.44
2022-09-07T18:50:56.942Z,57.21
2022-09-07T18:52:56.900Z,57.02
2022-09-07T18:53:56.897Z,57.74
2022-09-07T18:54:56.896Z,57.54
2022-09-07T18:55:56.886Z,57.41
2022-09-07T18:56:56.864Z,57.21
2022-09-07T18:57:56.851Z,57.02
2022-09-07T18:58:56.840Z,57.12
2022-09-07T18:59:56.841Z,57.12
2022-09-07T19:00:56.819Z,57.02
2022-09-07T19:01:56.824Z,57.12
2022-09-07T19:02:56.802Z,57.02
2022-09-07T19:03:56.787Z,57.21
2022-09-07T19:05:56.780Z,57.64
2022-09-07T19:06:56.757Z,57.74
2022-09-07T19:07:56.757Z,57.74
2022-09-07T19:08:56.757Z,57.84
2022-09-07T19:09:56.735Z,57.84
2022-09-07T19:10:56.716Z,57.93
2022-09-07T19:11:56.705Z,57.74
2022-09-07T19:12:56.694Z,58.03
2022-09-07T19:13:56.683Z,58.16
2022-09-07T19:14:56.679Z,58.23
2022-09-07T19:15:56.668Z,58.16
2022-09-07T19:16:56.651Z,58.06
2022-09-07T19:17:56.639Z,57.97
2022-09-07T19:18:56.631Z,57.67
2022-09-07T19:19:56.665Z,57.86
2022-09-07T19:20:56.691Z,58.16
2022-09-07T19:21:56.600Z,57.97
2022-09-07T19:22:56.594Z,58.48
2022-09-07T19:23:56.590Z,58.78
2022-09-07T19:24:56.616Z,58.78
2022-09-07T19:25:56.563Z,59.08
2022-09-07T19:26:56.547Z,58.98
2022-09-07T19:27:56.540Z,58.78
2022-09-07T19:28:56.524Z,58.36
2022-09-07T19:29:56.517Z,58.16
2022-09-07T19:30:56.506Z,58.48
2022-09-07T19:31:56.492Z,58.48
2022-09-07T19:32:56.483Z,59.01
2022-09-07T19:33:56.472Z,59.61
2022-09-07T19:34:56.468Z,60.03
2022-09-07T19:35:56.455Z,59.83
2022-09-07T19:36:56.447Z,60.13
2022-09-07T19:37:56.429Z,60.13
2022-09-07T19:38:56.420Z,60.46
2022-09-07T19:39:56.414Z,60.56
2022-09-07T19:40:56.399Z,60.53
2022-09-07T19:41:56.400Z,60.85
2022-09-07T19:42:56.376Z,60.96
2022-09-07T19:43:56.383Z,60.85
2022-09-07T19:44:56.362Z,60.85
2022-09-07T19:45:56.348Z,60.85
2022-09-07T19:46:56.343Z,60.53
2022-09-07T19:47:56.352Z,60.33
2022-09-07T19:48:56.310Z,60.23
2022-09-07T19:49:56.305Z,60.33
2022-09-07T19:50:56.298Z,60.03
2022-09-07T19:51:56.282Z,59.93
2022-09-07T19:52:56.265Z,59.74
2022-09-07T19:53:56.264Z,60.03
2022-09-07T19:54:56.247Z,60.46
2022-09-07T19:55:56.231Z,60.88
2022-09-07T19:56:56.224Z,61.28
2022-09-07T19:57:56.218Z,61.51
2022-09-07T19:58:56.208Z,61.8
2022-09-07T19:59:56.193Z,61.8
2022-09-07T20:00:56.187Z,61.8
2022-09-07T20:01:56.168Z,62.3
2022-09-07T20:02:56.156Z,62.3
2022-09-07T20:03:56.157Z,62.1
2022-09-07T20:04:56.143Z,62.13
2022-09-07T20:05:56.142Z,62.43
2022-09-07T20:06:56.121Z,62.83
2022-09-07T20:07:56.102Z,62.83
2022-09-07T20:08:56.098Z,62.96
2022-09-07T20:09:56.133Z,62.96
2022-09-07T20:10:56.069Z,63.16
2022-09-07T20:11:56.057Z,63.36
2022-09-07T20:12:56.077Z,63.59
2022-09-07T20:13:56.039Z,63.69
2022-09-07T20:14:56.029Z,63.89
2022-09-07T20:15:56.020Z,63.89
2022-09-07T20:16:56.017Z,63.89
2022-09-07T20:17:56.000Z,63.76
2022-09-07T20:18:56.057Z,63.36
2022-09-07T20:19:55.976Z,63.03
2022-09-07T20:20:55.966Z,62.73
2022-09-07T20:21:55.962Z,62.5
2022-09-07T20:22:55.942Z,62.21
2022-09-07T20:23:55.937Z,61.68
2022-09-07T20:24:55.942Z,61.15
2022-09-07T20:25:55.914Z,61.38
2022-09-07T20:26:55.898Z,61.58
2022-09-07T20:27:55.886Z,61.58
2022-09-07T20:28:55.882Z,61.88
2022-09-07T20:29:55.871Z,63.43
2022-09-07T20:30:55.877Z,64.78
2022-09-07T20:31:55.850Z,65.28
2022-09-07T20:32:55.837Z,65.38
2022-09-07T20:33:55.829Z,65.81
2022-09-07T20:34:55.817Z,65.38
2022-09-07T20:35:55.806Z,65.28
2022-09-07T20:36:55.816Z,64.98
2022-09-07T20:37:55.787Z,65.18
2022-09-07T20:38:55.768Z,64.98
2022-09-07T20:39:55.757Z,64.65
2022-09-07T20:40:55.747Z,64.55
2022-09-07T20:41:55.761Z,64.55
2022-09-07T20:42:55.724Z,64.45
2022-09-07T20:43:55.719Z,64.55
2022-09-07T20:44:55.716Z,64.55
2022-09-07T20:45:55.719Z,64.65
2022-09-07T20:46:55.684Z,64.55
2022-09-07T20:47:55.690Z,64.36
2022-09-07T20:48:55.662Z,64.12
2022-09-07T20:49:55.674Z,63.82
2022-09-07T20:50:55.644Z,63.85
2022-09-07T20:51:55.635Z,64.15
2022-09-07T20:52:55.613Z,64.39
2022-09-07T20:53:55.609Z,64.58
2022-09-07T20:54:55.599Z,64.78
2022-09-07T20:55:55.613Z,64.98
2022-09-07T20:56:55.576Z,65.08
2022-09-07T20:57:55.570Z,64.98
2022-09-07T20:58:55.552Z,65.11
2022-09-07T20:59:55.542Z,65.11
2022-09-07T21:00:55.530Z,65.11
2022-09-07T21:01:55.531Z,65.61
2022-09-07T21:02:55.511Z,65.31
2022-09-07T21:03:55.500Z,65.41
2022-09-07T21:04:55.504Z,65.74
2022-09-07T21:05:55.479Z,66.04
2022-09-07T21:06:55.478Z,66.14
2022-09-07T21:07:55.471Z,66.24
2022-09-07T21:08:55.450Z,66.14
2022-09-07T21:09:55.437Z,66.24
2022-09-07T21:10:55.427Z,66.04
2022-09-07T21:11:55.414Z,66.04
2022-09-07T21:12:55.410Z,65.61
2022-09-07T21:13:55.424Z,65.61
2022-09-07T21:14:55.386Z,65.61
2022-09-07T21:15:55.373Z,65.61
2022-09-07T21:16:55.386Z,65.31
2022-09-07T21:17:55.384Z,65.31
2022-09-07T21:18:55.340Z,65.31
2022-09-07T21:19:55.347Z,65.31
2022-09-07T21:20:55.348Z,65.31
2022-09-07T21:21:55.334Z,65.64
2022-09-07T21:22:55.295Z,65.94
2022-09-07T21:23:55.286Z,66.14
2022-09-07T21:24:55.277Z,66.47
2022-09-07T21:25:55.285Z,66.67
2022-09-07T21:26:55.269Z,66.67
2022-09-07T21:27:55.242Z,66.77
2022-09-07T21:28:55.231Z,66.57
2022-09-07T21:29:55.234Z,66.9
2022-09-07T21:30:55.215Z,67.83
2022-09-07T21:31:55.200Z,68.56
2022-09-07T21:32:55.190Z,68.56
2022-09-07T21:33:55.194Z,68.73
2022-09-07T21:34:55.165Z,68.23
2022-09-07T21:35:55.157Z,67.83
2022-09-07T21:36:55.146Z,67.9
2022-09-07T21:37:55.148Z,67.6
2022-09-07T21:38:55.133Z,67.8
2022-09-07T21:39:55.121Z,67.4
2022-09-07T21:40:55.105Z,67.3
2022-09-07T21:41:55.092Z,66.97
2022-09-07T21:42:55.083Z,66.77
2022-09-07T21:43:55.076Z,66.87
2022-09-07T21:44:55.069Z,66.87
2022-09-07T21:45:55.089Z,66.97
2022-09-07T21:46:55.040Z,67.1
2022-09-07T21:47:55.036Z,66.97
2022-09-07T21:48:55.022Z,66.87
2022-09-07T21:49:55.028Z,66.87
2022-09-07T21:50:54.997Z,66.97
2022-09-07T21:51:55.005Z,66.8
2022-09-07T21:52:54.991Z,67.1
2022-09-07T21:53:54.971Z,67.5
2022-09-07T21:54:54.961Z,67.6
2022-09-07T21:55:54.944Z,67.5
2022-09-07T21:56:54.936Z,67.83
2022-09-07T21:57:54.928Z,67.7
2022-09-07T21:58:54.925Z,67.5
2022-09-07T21:59:54.906Z,67.2
2022-09-07T22:00:54.899Z,68.26
2022-09-07T22:01:55.881Z,69.09
2022-09-07T22:02:54.888Z,69.2
2022-09-07T22:03:54.892Z,69.59
2022-09-07T22:04:54.889Z,69.39
2022-09-07T22:05:54.870Z,69.2
2022-09-07T22:06:54.852Z,68.86
2022-09-07T22:07:54.841Z,68.66
2022-09-07T22:08:54.849Z,68.66
2022-09-07T22:09:54.821Z,68.66
2022-09-07T22:10:54.806Z,68.66
2022-09-07T22:11:54.798Z,68.46
2022-09-07T22:12:54.862Z,68.16
2022-09-07T22:13:54.795Z,68.46
2022-09-07T22:14:54.772Z,68.46
2022-09-07T22:15:54.762Z,68.56
2022-09-07T22:16:54.754Z,68.86
2022-09-07T22:17:54.734Z,68.76
2022-09-07T22:18:54.738Z,68.46
2022-09-07T22:19:54.714Z,68.46
2022-09-07T22:20:54.705Z,68.36
2022-09-07T22:21:54.697Z,68.46
2022-09-07T22:22:54.690Z,68.66
2022-09-07T22:23:54.672Z,68.46
2022-09-07T22:24:54.663Z,68.46
2022-09-07T22:25:54.652Z,68.36
2022-09-07T22:26:54.644Z,68.13
2022-09-07T22:27:54.639Z,68.13
2022-09-07T22:28:54.627Z,68.16
2022-09-07T22:29:54.609Z,68.26
2022-09-07T22:30:54.605Z,68.16
2022-09-07T22:31:54.590Z,68.26
2022-09-07T22:32:54.578Z,68.46
2022-09-07T22:33:54.591Z,68.36
2022-09-07T22:34:54.560Z,68.26
2022-09-07T22:35:54.550Z,68.16
2022-09-07T22:36:54.557Z,68.26
2022-09-07T22:37:54.526Z,68.26
2022-09-07T22:38:54.517Z,68.16
2022-09-07T22:39:54.524Z,68.46
2022-09-07T22:40:54.517Z,68.76
2022-09-07T22:41:54.485Z,68.66
2022-09-07T22:42:54.478Z,68.76
2022-09-07T22:43:54.467Z,68.76
2022-09-07T22:44:54.457Z,68.66
2022-09-07T22:45:54.472Z,68.66
2022-09-07T22:46:54.458Z,68.56
2022-09-07T22:47:54.427Z,68.56
2022-09-07T22:48:54.414Z,68.66
2022-09-07T22:49:54.402Z,68.56
2022-09-07T22:50:54.394Z,68.76
2022-09-07T22:51:54.382Z,68.86
2022-09-07T22:52:54.402Z,68.76
2022-09-07T22:53:54.360Z,69.29
2022-09-07T22:54:54.349Z,69.59
2022-09-07T22:55:54.342Z,69.2
2022-09-07T22:56:54.331Z,68.86
2022-09-07T22:57:54.318Z,68.66
2022-09-07T22:58:54.310Z,68.56
2022-09-07T22:59:54.298Z,68.16
2022-09-07T23:00:54.286Z,68.36
2022-09-07T23:01:54.281Z,68.26
2022-09-07T23:02:54.265Z,68.26
2022-09-07T23:03:54.256Z,68.26
2022-09-07T23:04:54.252Z,68.06
2022-09-07T23:05:54.233Z,68.16
2022-09-07T23:06:54.222Z,68.26
2022-09-07T23:07:54.212Z,68.03
2022-09-07T23:08:54.207Z,67.73
2022-09-07T23:09:54.199Z,67.63
2022-09-07T23:10:54.190Z,67.63
2022-09-07T23:11:54.182Z,67.96
2022-09-07T23:12:54.160Z,67.86
2022-09-07T23:13:54.149Z,67.86
2022-09-07T23:14:54.145Z,67.96
2022-09-07T23:15:54.133Z,67.86
2022-09-07T23:16:54.125Z,68.06
2022-09-07T23:17:54.119Z,68.06
2022-09-07T23:18:54.098Z,68.16
2022-09-07T23:19:54.089Z,68.16
2022-09-07T23:20:54.078Z,68.36
2022-09-07T23:21:54.078Z,68.26
2022-09-07T23:22:54.055Z,68.46
2022-09-07T23:23:54.056Z,68.36
2022-09-07T23:24:54.037Z,68.46
2022-09-07T23:25:54.026Z,68.36
2022-09-07T23:26:54.011Z,68.59
2022-09-07T23:27:54.002Z,68.56
2022-09-07T23:28:53.991Z,68.46
2022-09-07T23:29:54.003Z,68.26
2022-09-07T23:30:53.975Z,68.46
2022-09-07T23:31:53.962Z,68.49
2022-09-07T23:32:53.948Z,68.36
2022-09-07T23:33:53.938Z,68.26
2022-09-07T23:34:53.931Z,68.36
2022-09-07T23:35:53.916Z,68.16
2022-09-07T23:36:53.917Z,68.46
2022-09-07T23:37:53.899Z,68.56
2022-09-07T23:38:53.889Z,68.49
2022-09-07T23:39:53.877Z,68.36
2022-09-07T23:40:53.864Z,68.49
2022-09-07T23:41:53.856Z,68.49
2022-09-07T23:42:53.851Z,68.7
2022-09-07T23:43:53.846Z,68.49
2022-09-07T23:44:53.840Z,68.89
2022-09-07T23:45:53.811Z,68.79
2022-09-07T23:46:53.802Z,68.79
2022-09-07T23:47:53.790Z,68.89
2022-09-07T23:48:53.785Z,68.89
2022-09-07T23:49:53.780Z,68.99
2022-09-07T23:50:53.757Z,69.43
2022-09-07T23:51:53.766Z,69.53
2022-09-07T23:52:53.742Z,69.62
2022-09-07T23:53:53.760Z,69.82
2022-09-07T23:54:53.856Z,69.53
2022-09-07T23:55:53.731Z,69.39
2022-09-07T23:56:53.698Z,69.13
2022-09-07T23:57:53.687Z,69.53
2022-09-07T23:58:53.680Z,69.73
2022-09-07T23:59:53.667Z,69.73
